Time;durP1;ratioP1;P1;durP2;ratioP2;P2;SDS_P1;SDS_P2;PMS_P1;PMS_P2;Temp;Humidity;BMP_temperature;BMP_pressure;BME280_temperature;BME280_humidity;BME280_pressure;Samples;Min_cycle;Max_cycle;Signal;HPM_P1;HPM_P2
2022/01/16 00:01:14;;;;;;;49.28;20.10;;;;;;;;;;5006611;28;20030;-84
2022/01/16 00:06:30;;;;;;;48.42;20.67;;;1.70;99.90;;;;;;5009869;28;20057;-85
2022/01/16 00:08:56;;;;;;;47.65;20.45;;;1.80;99.90;;;;;;5004658;28;20026;-87
2022/01/16 00:11:25;;;;;;;48.83;19.95;;;1.70;99.90;;;;;;5004857;28;20049;-84
2022/01/16 00:13:55;;;;;;;44.35;18.55;;;;;;;;;;5004571;28;20015;-86
2022/01/16 00:16:21;;;;;;;50.50;20.42;;;;;;;;;;5002936;28;20026;-86
2022/01/16 00:18:50;;;;;;;48.80;20.13;;;1.70;99.90;;;;;;5009672;28;20022;-85
2022/01/16 00:21:21;;;;;;;48.45;18.40;;;1.70;99.90;;;;;;5007556;28;20376;-84
2022/01/16 00:23:51;;;;;;;;;;;1.70;99.90;;;;;;5001798;28;20026;-84
2022/01/16 00:26:21;;;;;;;50.83;19.80;;;1.70;99.90;;;;;;5007296;28;19955;-82
2022/01/16 00:28:50;;;;;;;51.67;20.98;;;;;;;;;;5004025;28;20037;-84
2022/01/16 00:31:20;;;;;;;55.53;21.02;;;1.70;99.90;;;;;;5015395;28;20031;-87
2022/01/16 00:33:49;;;;;;;51.05;20.67;;;1.80;99.90;;;;;;5006901;28;20115;-83
2022/01/16 00:36:37;;;;;;;53.20;20.15;;;1.80;99.90;;;;;;5007738;28;20037;-82
2022/01/16 00:39:04;;;;;;;52.67;20.17;;;;;;;;;;5015602;28;20103;-83
2022/01/16 00:41:30;;;;;;;54.08;20.90;;;;;;;;;;5011683;28;20489;-83
2022/01/16 00:43:58;;;;;;;54.78;22.98;;;1.90;99.90;;;;;;5025822;28;20064;-85
2022/01/16 00:46:24;;;;;;;54.30;20.98;;;;;;;;;;5008125;28;20045;-83
2022/01/16 00:48:50;;;;;;;57.38;23.00;;;1.80;99.90;;;;;;5012858;28;20050;-86
2022/01/16 00:51:16;;;;;;;51.85;21.02;;;;;;;;;;5014678;28;20034;-84
2022/01/16 00:53:43;;;;;;;53.90;21.52;;;;;;;;;;5010589;28;20030;-86
2022/01/16 00:56:09;;;;;;;53.92;20.98;;;;;;;;;;5014070;28;20057;-83
2022/01/16 00:58:38;;;;;;;56.70;23.13;;;;;;;;;;5010330;28;20030;-86
2022/01/16 01:01:05;;;;;;;54.88;21.08;;;;;;;;;;5008061;28;20037;-84
2022/01/16 01:03:34;;;;;;;56.30;20.15;;;;;;;;;;4995917;28;20055;-85
2022/01/16 01:06:00;;;;;;;53.55;21.15;;;;;;;;;;5006675;28;20129;-84
2022/01/16 01:08:28;;;;;;;54.25;22.80;;;;;;;;;;5022417;28;20077;-83
2022/01/16 01:10:56;;;;;;;57.83;22.15;;;1.90;99.90;;;;;;5004491;28;20030;-86
2022/01/16 01:16:14;;;;;;;55.40;22.70;;;;;;;;;;5004172;28;20038;-83
2022/01/16 01:18:40;;;;;;;57.90;22.98;;;;;;;;;;5005131;28;20041;-82
2022/01/16 01:21:16;;;;;;;53.60;20.77;;;;;;;;;;5004444;28;20026;-83
2022/01/16 01:23:48;;;;;;;51.50;21.02;;;;;;;;;;5001124;28;20044;-84
2022/01/16 01:26:14;;;;;;;57.08;22.35;;;1.90;99.90;;;;;;5002442;28;20050;-84
2022/01/16 01:28:44;;;;;;;60.13;23.85;;;;;;;;;;5005491;28;20534;-83
2022/01/16 01:31:16;;;;;;;64.15;23.85;;;;;;;;;;5016445;28;20034;-85
2022/01/16 01:33:47;;;;;;;59.65;22.90;;;;;;;;;;4995010;28;20351;-83
2022/01/16 01:36:22;;;;;;;57.58;22.27;;;;;;;;;;5004783;28;20049;-83
2022/01/16 01:38:48;;;;;;;53.03;21.05;;;;;;;;;;4994015;28;20031;-84
2022/01/16 01:41:14;;;;;;;55.40;21.50;;;;;;;;;;5005228;28;20038;-84
2022/01/16 01:51:52;;;;;;;61.83;24.02;;;1.50;99.90;;;;;;5008691;28;20049;-83
2022/01/16 01:54:21;;;;;;;53.53;22.15;;;5.40;99.90;;;;;;5008632;28;20031;-84
2022/01/16 01:56:47;;;;;;;62.13;23.08;;;;;;;;;;4998864;28;20042;-86
2022/01/16 01:59:13;;;;;;;60.28;22.60;;;;;;;;;;5000555;28;20065;-84
2022/01/16 02:01:39;;;;;;;57.97;21.88;;;;;;;;;;5004231;28;20037;-84
2022/01/16 02:04:05;;;;;;;62.03;22.88;;;;;;;;;;4998470;28;20027;-86
2022/01/16 02:06:32;;;;;;;58.03;22.85;;;1.70;99.90;;;;;;5002264;28;20029;-82
2022/01/16 02:09:04;;;;;;;66.07;24.85;;;1.70;99.90;;;;;;4999703;28;20063;-83
2022/01/16 02:11:31;;;;;;;60.05;22.35;;;2.40;99.90;;;;;;4997104;28;20686;-83
2022/01/16 02:33:21;;;;;;;59.17;22.67;;;;;;;;;;5013673;28;20099;-88
2022/01/16 02:35:41;;;;;;;60.97;21.98;;;1.50;99.90;;;;;;5017081;28;20018;-82
2022/01/16 02:38:09;;;;;;;55.22;22.15;;;1.40;99.90;;;;;;5017503;28;20097;-87
2022/01/16 02:40:38;;;;;;;60.35;23.88;;;;;;;;;;5011515;28;20038;-87
2022/01/16 02:43:05;;;;;;;58.90;23.73;;;;;;;;;;5009163;28;20058;-82
2022/01/16 02:45:33;;;;;;;62.65;22.15;;;;;;;;;;4995785;28;20038;-83
2022/01/16 02:48:05;;;;;;;64.50;23.80;;;1.30;99.90;;;;;;5002818;28;20032;-84
2022/01/16 02:50:32;;;;;;;70.72;23.58;;;;;;;;;;4995372;28;20091;-82
2022/01/16 02:52:58;;;;;;;59.00;22.60;;;1.20;99.90;;;;;;4998718;28;20030;-82
2022/01/16 02:55:27;;;;;;;68.90;23.27;;;1.20;99.90;;;;;;5001034;28;20019;-83
2022/01/16 02:57:55;;;;;;;63.97;24.30;;;1.20;99.90;;;;;;5008550;28;20030;-82
2022/01/16 03:00:23;;;;;;;68.05;23.45;;;0.70;99.90;;;;;;5003795;28;20118;-83
2022/01/16 03:02:49;;;;;;;61.88;23.13;;;;;;;;;;5005726;28;20031;-81
2022/01/16 03:05:15;;;;;;;66.18;24.38;;;;;;;;;;5008366;28;20069;-82
2022/01/16 03:07:42;;;;;;;62.53;23.98;;;1.10;99.90;;;;;;4999205;28;20038;-81
2022/01/16 03:10:32;;;;;;;66.45;24.80;;;1.10;99.90;;;;;;4998673;28;20053;-81
2022/01/16 03:12:59;;;;;;;59.25;23.13;;;;;;;;;;5001540;28;20513;-82
2022/01/16 03:15:25;;;;;;;60.50;25.10;;;1.10;99.90;;;;;;5002523;28;20036;-82
2022/01/16 03:23:07;;;;;;;51.83;21.77;;;1.20;99.90;;;;;;4999604;28;20093;-85
2022/01/16 03:25:34;;;;;;;50.67;20.52;;;1.20;99.90;;;;;;5014962;23;20049;-82
2022/01/16 03:28:01;;;;;;;54.95;22.25;;;1.20;99.90;;;;;;5025993;28;20060;-79
2022/01/16 03:30:27;;;;;;;55.80;22.33;;;1.20;99.90;;;;;;5015097;28;20029;-84
2022/01/16 03:32:54;;;;;;;58.78;21.20;;;1.20;99.90;;;;;;5038332;28;20053;-80
2022/01/16 03:35:21;;;;;;;56.70;21.77;;;1.10;99.90;;;;;;4988116;28;20050;-82
2022/01/16 03:37:47;;;;;;;52.72;21.40;;;1.10;99.90;;;;;;4999328;28;20098;-81
2022/01/16 03:40:14;;;;;;;59.22;22.02;;;1.10;99.90;;;;;;4988565;28;20041;-81
2022/01/16 03:42:42;;;;;;;58.20;21.98;;;1.10;99.90;;;;;;4979716;28;20081;-82
2022/01/16 03:45:12;;;;;;;52.17;20.17;;;1.00;99.90;;;;;;4994328;28;20046;-82
2022/01/16 03:47:39;;;;;;;57.00;20.60;;;1.00;99.90;;;;;;5016382;28;20030;-81
2022/01/16 03:50:08;;;;;;;52.33;21.27;;;1.00;99.90;;;;;;4993497;28;20058;-82
2022/01/16 03:52:34;;;;;;;56.53;21.63;;;1.00;99.90;;;;;;5017260;28;20034;-84
2022/01/16 03:55:02;;;;;;;49.63;19.58;;;1.10;99.90;;;;;;5002501;28;20042;-83
2022/01/16 03:57:28;;;;;;;59.75;23.17;;;;;;;;;;5001912;28;20026;-85
2022/01/16 03:59:54;;;;;;;57.28;23.35;;;1.00;99.90;;;;;;5000362;28;20040;-84
2022/01/16 04:02:20;;;;;;;56.90;22.35;;;1.00;99.90;;;;;;5006726;28;20095;-84
2022/01/16 04:04:46;;;;;;;51.15;21.50;;;1.00;99.90;;;;;;4996377;28;20042;-85
2022/01/16 04:07:18;;;;;;;61.08;22.73;;;;;;;;;;5019973;28;20022;-83
2022/01/16 04:09:43;;;;;;;52.42;22.00;;;1.00;99.90;;;;;;5003163;28;20097;-83
2022/01/16 04:12:10;;;;;;;47.83;20.45;;;1.00;99.90;;;;;;5021036;28;20238;-80
2022/01/16 04:17:12;;;;;;;55.85;21.10;;;1.10;99.90;;;;;;5023368;28;20053;-81
2022/01/16 04:19:38;;;;;;;55.25;22.13;;;1.10;99.90;;;;;;5001469;28;20038;-81
2022/01/16 04:22:04;;;;;;;49.28;21.25;;;1.10;99.90;;;;;;5002137;28;20049;-82
2022/01/16 04:24:30;;;;;;;50.00;20.20;;;2.10;99.90;;;;;;5018673;28;20126;-81
2022/01/16 04:26:56;;;;;;;50.47;21.17;;;;;;;;;;5018580;28;20544;-83
2022/01/16 04:29:22;;;;;;;50.78;20.83;;;;;;;;;;5003487;28;20017;-80
2022/01/16 04:31:48;;;;;;;46.20;20.58;;;;;;;;;;5000665;28;20407;-84
2022/01/16 04:34:14;;;;;;;49.45;20.50;;;1.10;99.90;;;;;;4997372;28;20044;-83
2022/01/16 04:36:40;;;;;;;52.65;21.23;;;1.10;99.90;;;;;;5003189;28;20038;-83
2022/01/16 04:39:14;;;;;;;54.33;21.08;;;;;;;;;;4986617;28;20450;-81
2022/01/16 04:44:26;;;;;;;49.75;18.42;;;0.90;99.90;;;;;;5022577;28;20041;-80
2022/01/16 04:46:52;;;;;;;54.90;21.35;;;0.90;99.90;;;;;;5018070;28;20032;-80
2022/01/16 04:49:18;;;;;;;53.33;20.83;;;1.00;99.90;;;;;;5000956;28;20038;-81
2022/01/16 04:51:43;;;;;;;50.00;20.55;;;0.80;99.90;;;;;;5004449;28;20057;-79
2022/01/16 04:54:09;;;;;;;54.97;21.77;;;0.90;99.90;;;;;;5020369;28;20034;-84
2022/01/16 04:56:35;;;;;;;53.75;22.55;;;0.80;99.90;;;;;;5001672;28;20030;-81
2022/01/16 04:59:01;;;;;;;51.78;20.98;;;0.80;99.90;;;;;;4997954;28;20033;-82
2022/01/16 05:01:26;;;;;;;53.78;21.30;;;3.20;99.90;;;;;;4995976;28;20117;-81
2022/01/16 05:03:53;;;;;;;51.08;20.77;;;;;;;;;;5001276;28;20026;-81
2022/01/16 05:06:19;;;;;;;53.78;22.13;;;;;;;;;;5001673;28;20297;-82
2022/01/16 05:08:45;;;;;;;54.33;21.95;;;;;;;;;;5005906;28;20042;-82
2022/01/16 05:11:13;;;;;;;52.47;20.90;;;1.20;99.90;;;;;;5026926;28;20034;-83
2022/01/16 05:18:52;;;;;;;54.35;20.05;;;;;;;;;;5025633;28;20045;-84
2022/01/16 05:21:18;;;;;;;51.92;21.40;;;;;;;;;;5003020;28;20026;-83
2022/01/16 05:23:44;;;;;;;60.58;21.48;;;;;;;;;;4998516;28;20039;-81
2022/01/16 05:26:12;;;;;;;58.47;23.13;;;1.00;99.90;;;;;;5001673;28;20105;-82
2022/01/16 05:28:38;;;;;;;64.78;24.13;;;0.80;99.90;;;;;;5019078;28;20034;-82
2022/01/16 05:31:04;;;;;;;55.60;21.80;;;2.60;99.90;;;;;;5015092;28;20530;-80
2022/01/16 05:33:31;;;;;;;57.97;22.75;;;0.90;99.90;;;;;;5005474;28;20030;-85
2022/01/16 05:35:57;;;;;;;58.17;21.02;;;;;;;;;;4998223;28;20466;-79
2022/01/16 05:38:23;;;;;;;58.47;23.17;;;0.90;99.90;;;;;;4995764;28;20069;-82
2022/01/16 05:40:49;;;;;;;65.93;22.88;;;;;;;;;;4994190;28;20034;-84
2022/01/16 05:43:15;;;;;;;56.55;21.55;;;0.90;99.90;;;;;;5009094;28;20030;-81
2022/01/16 05:45:41;;;;;;;55.15;21.40;;;;;;;;;;4995342;28;20103;-84
2022/01/16 05:48:07;;;;;;;57.10;22.42;;;1.00;99.90;;;;;;5003033;28;20045;-83
2022/01/16 05:50:33;;;;;;;61.75;23.05;;;;;;;;;;5019845;28;20085;-80
2022/01/16 05:53:01;;;;;;;61.13;22.88;;;1.00;99.90;;;;;;5003132;28;20113;-82
2022/01/16 05:55:31;;;;;;;61.88;22.80;;;1.00;99.90;;;;;;4997935;28;20034;-81
2022/01/16 05:57:57;;;;;;;59.00;22.63;;;;;;;;;;5003840;28;20038;-81
2022/01/16 06:00:23;;;;;;;69.22;25.15;;;;;;;;;;5011930;28;20466;-82
2022/01/16 06:02:49;;;;;;;61.75;21.73;;;;;;;;;;5025999;28;20063;-84
2022/01/16 06:05:16;;;;;;;61.45;21.75;;;;;;;;;;5010403;28;20036;-84
2022/01/16 06:07:51;;;;;;;58.47;22.92;;;;;;;;;;5013327;28;20042;-81
2022/01/16 06:10:17;;;;;;;57.38;22.73;;;1.00;99.90;;;;;;5000534;28;20045;-82
2022/01/16 06:12:43;;;;;;;61.83;24.42;;;;;;;;;;5002094;28;20028;-82
2022/01/16 06:15:10;;;;;;;61.38;22.20;;;0.90;99.90;;;;;;5006193;28;20038;-84
2022/01/16 06:17:36;;;;;;;62.17;23.20;;;;;;;;;;5001661;28;20030;-81
2022/01/16 06:20:06;;;;;;;54.28;21.60;;;1.20;99.90;;;;;;4999228;28;20040;-82
2022/01/16 06:22:31;;;;;;;53.45;21.35;;;1.10;99.90;;;;;;4999284;28;20028;-82
2022/01/16 06:24:57;;;;;;;57.75;20.45;;;;;;;;;;5002535;28;20034;-82
2022/01/16 06:27:23;;;;;;;61.10;21.27;;;;;;;;;;5008886;28;20034;-85
2022/01/16 06:29:49;;;;;;;51.58;20.40;;;1.50;99.90;;;;;;5004771;28;20043;-83
2022/01/16 06:32:15;;;;;;;58.30;20.38;;;;;;;;;;5016626;28;20018;-83
2022/01/16 06:34:41;;;;;;;53.80;21.20;;;;;;;;;;5019131;28;20034;-83
2022/01/16 06:37:07;;;;;;;57.15;21.23;;;1.40;99.90;;;;;;5002659;28;20061;-84
2022/01/16 06:39:34;;;;;;;60.10;22.55;;;1.40;99.90;;;;;;5003479;28;20033;-82
2022/01/16 06:42:00;;;;;;;60.17;22.38;;;;;;;;;;4994996;28;20025;-82
2022/01/16 06:44:25;;;;;;;61.00;22.63;;;1.30;99.90;;;;;;5008387;28;20085;-81
2022/01/16 06:46:51;;;;;;;63.35;22.30;;;1.20;99.90;;;;;;5002820;28;20033;-84
2022/01/16 06:49:17;;;;;;;55.55;21.85;;;1.20;99.90;;;;;;5003040;28;20030;-83
2022/01/16 06:51:43;;;;;;;57.13;22.73;;;1.30;99.90;;;;;;4992896;28;20019;-83
2022/01/16 06:54:08;;;;;;;57.47;21.90;;;1.20;99.90;;;;;;4997618;28;20026;-83
2022/01/16 06:56:34;;;;;;;56.30;21.17;;;1.20;99.90;;;;;;4993266;28;20395;-83
2022/01/16 06:59:00;;;;;;;60.40;22.42;;;;;;;;;;5000515;28;20046;-84
2022/01/16 07:01:26;;;;;;;62.95;22.02;;;1.30;99.90;;;;;;4990785;28;20034;-81
2022/01/16 07:03:55;;;;;;;59.13;22.13;;;1.20;99.90;;;;;;5011202;28;20064;-83
2022/01/16 07:06:22;;;;;;;64.03;21.77;;;1.30;99.90;;;;;;5012464;28;20034;-82
2022/01/16 07:08:48;;;;;;;61.03;22.15;;;2.60;99.90;;;;;;5014247;28;20037;-86
2022/01/16 07:11:15;;;;;;;61.70;22.15;;;;;;;;;;5004300;28;20098;-83
2022/01/16 07:13:41;;;;;;;64.75;23.75;;;1.30;99.90;;;;;;4999897;28;20043;-81
2022/01/16 07:16:06;;;;;;;67.93;24.23;;;3.20;99.90;;;;;;4997074;28;20045;-83
2022/01/16 07:18:32;;;;;;;68.15;25.05;;;1.20;99.90;;;;;;4995106;28;20581;-82
2022/01/16 07:20:58;;;;;;;67.68;24.83;;;1.30;99.90;;;;;;4995940;28;20033;-82
2022/01/16 07:23:24;;;;;;;63.78;22.88;;;1.30;99.90;;;;;;4997636;28;20025;-81
2022/01/16 07:25:52;;;;;;;73.75;25.10;;;;;;;;;;5012404;28;20053;-82
2022/01/16 07:28:19;;;;;;;67.07;24.95;;;1.30;99.90;;;;;;5002157;28;20041;-82
2022/01/16 07:30:46;;;;;;;67.13;23.00;;;;;;;;;;4997198;28;20117;-84
2022/01/16 07:33:12;;;;;;;67.40;25.65;;;;;;;;;;5022696;28;20088;-84
2022/01/16 07:35:38;;;;;;;71.82;24.02;;;1.40;99.90;;;;;;4999883;28;20061;-85
2022/01/16 07:38:08;;;;;;;70.03;25.58;;;1.40;99.90;;;;;;5002176;28;20034;-84
2022/01/16 07:40:35;;;;;;;70.18;26.77;;;1.40;99.90;;;;;;4994286;28;20118;-83
2022/01/16 07:43:01;;;;;;;66.85;24.45;;;;;;;;;;5005457;28;20030;-81
2022/01/16 07:45:27;;;;;;;67.00;24.95;;;1.30;99.90;;;;;;4998598;28;20026;-83
2022/01/16 07:47:53;;;;;;;73.32;25.23;;;1.40;99.90;;;;;;5003924;28;20037;-80
2022/01/16 07:50:19;;;;;;;73.38;25.63;;;;;;;;;;5003539;28;20052;-81
2022/01/16 07:52:47;;;;;;;68.63;23.70;;;1.50;99.90;;;;;;5001180;28;20039;-82
2022/01/16 07:55:13;;;;;;;70.32;24.80;;;2.50;99.90;;;;;;5020828;28;20038;-82
2022/01/16 07:57:39;;;;;;;62.17;24.27;;;1.40;99.90;;;;;;4999744;28;20117;-83
2022/01/16 08:00:06;;;;;;;67.55;24.05;;;4.40;99.90;;;;;;4999282;28;20041;-84
2022/01/16 08:02:31;;;;;;;81.32;28.85;;;1.30;99.90;;;;;;5002173;28;20034;-82
2022/01/16 08:04:57;;;;;;;72.03;26.80;;;;;;;;;;5021570;28;20033;-84
2022/01/16 08:07:23;;;;;;;74.40;26.52;;;;;;;;;;4993892;28;20022;-83
2022/01/16 08:09:49;;;;;;;62.97;23.77;;;1.40;99.90;;;;;;5002282;28;20045;-83
2022/01/16 08:12:15;;;;;;;68.95;26.65;;;;;;;;;;5002390;28;20038;-85
2022/01/16 08:14:41;;;;;;;71.20;26.13;;;;;;;;;;4992743;28;20041;-81
2022/01/16 08:17:07;;;;;;;73.22;27.42;;;1.50;99.90;;;;;;5023915;28;20042;-86
2022/01/16 08:19:33;;;;;;;68.72;24.42;;;1.60;99.90;;;;;;5011341;28;20034;-82
2022/01/16 08:21:59;;;;;;;66.30;24.80;;;;;;;;;;4995918;28;20034;-83
2022/01/16 08:24:32;;;;;;;66.68;25.48;;;1.60;99.90;;;;;;5005194;28;20048;-83
2022/01/16 08:26:59;;;;;;;66.68;25.23;;;1.70;99.90;;;;;;5019681;28;20034;-84
2022/01/16 08:29:25;;;;;;;72.07;26.88;;;1.60;99.90;;;;;;5011874;28;20029;-82
2022/01/16 08:31:51;;;;;;;66.10;24.40;;;;;;;;;;5003363;28;20048;-79
2022/01/16 08:34:17;;;;;;;51.83;20.88;;;;;;;;;;5007947;28;20031;-82
2022/01/16 08:36:43;;;;;;;50.35;20.08;;;;;;;;;;5008011;28;20027;-83
2022/01/16 08:39:09;;;;;;;52.20;21.92;;;;;;;;;;4998795;28;20033;-83
2022/01/16 08:41:37;;;;;;;51.05;20.90;;;;;;;;;;5004377;28;20052;-83
2022/01/16 08:44:05;;;;;;;49.95;20.40;;;1.80;99.90;;;;;;5020658;28;20038;-84
2022/01/16 08:46:31;;;;;;;44.83;18.83;;;1.80;99.90;;;;;;5010355;28;20033;-83
2022/01/16 08:48:57;;;;;;;48.08;20.67;;;;;;;;;;5002298;28;20030;-84
2022/01/16 08:51:23;;;;;;;45.08;20.52;;;1.80;99.90;;;;;;4995979;28;20026;-85
2022/01/16 08:53:49;;;;;;;48.05;21.83;;;;;;;;;;5000749;28;20030;-82
2022/01/16 08:56:16;;;;;;;52.40;23.95;;;1.90;99.90;;;;;;5005619;28;20034;-83
2022/01/16 08:58:42;;;;;;;52.20;21.10;;;;;;;;;;5001369;28;20125;-85
2022/01/16 09:01:07;;;;;;;52.80;21.55;;;1.90;99.90;;;;;;4999960;28;20045;-82
2022/01/16 09:03:34;;;;;;;47.95;18.77;;;1.80;99.90;;;;;;4991830;28;20042;-81
2022/01/16 09:06:00;;;;;;;52.83;21.65;;;;;;;;;;4977384;28;20038;-79
2022/01/16 09:08:26;;;;;;;59.28;23.50;;;1.80;99.90;;;;;;5018501;28;20064;-80
2022/01/16 09:10:51;;;;;;;55.15;21.23;;;;;;;;;;4991364;28;20113;-82
2022/01/16 09:13:17;;;;;;;54.35;23.58;;;1.80;99.90;;;;;;4995438;28;20059;-82
2022/01/16 09:15:44;;;;;;;63.08;22.52;;;1.80;99.90;;;;;;4991142;28;20054;-81
2022/01/16 09:18:11;;;;;;;52.30;22.25;;;1.90;99.90;;;;;;4993425;28;20101;-79
2022/01/16 09:20:37;;;;;;;52.38;22.67;;;1.80;99.90;;;;;;4990556;28;20034;-79
2022/01/16 09:23:03;;;;;;;56.15;22.20;;;1.90;99.90;;;;;;4996254;28;20044;-79
2022/01/16 09:25:29;;;;;;;55.80;22.70;;;1.40;99.90;;;;;;4992718;28;20034;-82
2022/01/16 09:27:55;;;;;;;55.88;22.08;;;1.90;99.90;;;;;;5009319;28;20056;-81
2022/01/16 09:30:22;;;;;;;53.38;21.48;;;1.90;99.90;;;;;;4992509;28;20037;-80
2022/01/16 09:32:48;;;;;;;49.47;19.98;;;;;;;;;;5016627;28;20022;-83
2022/01/16 09:35:15;;;;;;;51.58;21.00;;;;;;;;;;5001734;28;20095;-86
2022/01/16 09:37:41;;;;;;;48.70;21.38;;;2.10;99.90;;;;;;5005927;28;20039;-85
2022/01/16 09:40:09;;;;;;;49.20;20.63;;;2.20;99.90;;;;;;5000148;28;20076;-86
2022/01/16 09:42:35;;;;;;;48.67;21.45;;;2.20;99.90;;;;;;4996601;28;20706;-82
2022/01/16 09:45:02;;;;;;;47.67;20.50;;;;;;;;;;4990710;28;20084;-83
2022/01/16 09:47:28;;;;;;;51.67;20.80;;;;;;;;;;4992649;28;20050;-81
2022/01/16 09:49:53;;;;;;;50.28;21.17;;;2.20;99.90;;;;;;5017962;28;20122;-83
2022/01/16 09:52:19;;;;;;;51.08;20.98;;;2.10;99.90;;;;;;4991508;28;20168;-80
2022/01/16 09:54:45;;;;;;;49.85;20.92;;;2.30;99.90;;;;;;5000482;28;20057;-85
2022/01/16 09:57:12;;;;;;;47.88;20.25;;;2.10;99.90;;;;;;5015365;28;20049;-80
2022/01/16 09:59:38;;;;;;;51.72;20.65;;;2.20;99.90;;;;;;5023613;28;20382;-83
2022/01/16 10:02:06;;;;;;;50.47;21.58;;;2.20;99.90;;;;;;5000084;28;20077;-81
2022/01/16 10:04:43;;;;;;;59.83;22.45;;;2.10;99.90;;;;;;5013326;28;20036;-83
2022/01/16 10:07:17;;;;;;;46.17;20.38;;;3.30;99.90;;;;;;4997512;28;20030;-83
2022/01/16 10:10:03;;;;;;;51.92;22.23;;;2.30;99.90;;;;;;5015486;28;20021;-81
2022/01/16 10:12:29;;;;;;;51.95;20.42;;;2.20;99.90;;;;;;5001128;28;20030;-82
2022/01/16 10:14:56;;;;;;;47.40;19.15;;;4.70;99.90;;;;;;5000178;28;20149;-83
2022/01/16 10:17:24;;;;;;;57.63;22.17;;;2.30;99.90;;;;;;4997091;28;20693;-82
2022/01/16 10:20:02;;;;;;;49.53;20.27;;;5.80;99.90;;;;;;5002532;28;20037;-82
2022/01/16 10:22:40;;;;;;;54.83;21.17;;;2.40;99.90;;;;;;5015172;28;20061;-85
2022/01/16 10:25:07;;;;;;;49.13;20.02;;;4.20;99.90;;;;;;5003289;28;20028;-83
2022/01/16 10:27:42;;;;;;;54.67;21.88;;;2.50;99.90;;;;;;5000541;28;20068;-84
2022/01/16 10:30:12;;;;;;;58.15;20.98;;;2.90;99.90;;;;;;5008384;28;20029;-81
2022/01/16 10:32:41;;;;;;;53.05;21.25;;;2.50;99.90;;;;;;5000194;28;20037;-83
2022/01/16 10:35:15;;;;;;;48.58;20.50;;;2.50;99.90;;;;;;4997779;28;20033;-83
2022/01/16 10:37:47;;;;;;;50.47;21.15;;;2.60;99.90;;;;;;4997748;28;20029;-82
2022/01/16 10:40:39;;;;;;;53.88;22.08;;;2.60;99.90;;;;;;4993581;28;20026;-85
2022/01/16 10:43:13;;;;;;;52.17;20.63;;;2.60;99.90;;;;;;5002498;28;20026;-80
2022/01/16 10:45:39;;;;;;;56.65;22.17;;;;;;;;;;5009182;28;20478;-83
2022/01/16 10:48:05;;;;;;;54.45;22.48;;;2.60;99.90;;;;;;5003891;28;20018;-81
2022/01/16 10:50:45;;;;;;;60.30;22.48;;;2.60;99.90;;;;;;4987700;28;20034;-78
2022/01/16 10:53:13;;;;;;;53.65;21.73;;;2.50;99.90;;;;;;4998353;28;20039;-83
2022/01/16 10:55:47;;;;;;;57.05;22.35;;;2.50;99.90;;;;;;4995409;28;20034;-86
2022/01/16 10:58:18;;;;;;;53.20;22.60;;;2.60;99.90;;;;;;5017705;28;20030;-83
2022/01/16 11:01:03;;;;;;;61.35;23.88;;;2.60;99.90;;;;;;5006179;28;20044;-84
2022/01/16 11:03:41;;;;;;;50.55;22.42;;;2.60;99.90;;;;;;5010166;28;20030;-81
2022/01/16 11:06:08;;;;;;;54.67;22.83;;;;;;;;;;5020717;28;20097;-84
2022/01/16 11:08:34;;;;;;;55.03;22.35;;;3.00;99.90;;;;;;5024327;28;20046;-83
2022/01/16 11:11:00;;;;;;;59.42;21.73;;;;;;;;;;5009406;28;20037;-82
2022/01/16 11:13:30;;;;;;;56.22;23.42;;;2.70;99.90;;;;;;4997355;28;20041;-85
2022/01/16 11:16:05;;;;;;;53.67;22.10;;;2.70;99.90;;;;;;4999555;28;20546;-86
2022/01/16 11:18:35;;;;;;;53.38;20.40;;;2.70;99.90;;;;;;4996337;28;20045;-84
2022/01/16 11:23:48;;;;;;;53.58;22.63;;;2.60;99.90;;;;;;5025591;28;20022;-85
2022/01/16 11:26:17;;;;;;;56.03;22.00;;;2.70;99.90;;;;;;5024654;28;20061;-84
2022/01/16 11:28:44;;;;;;;57.78;23.70;;;;;;;;;;5028677;28;20030;-87
2022/01/16 11:31:12;;;;;;;54.05;22.02;;;2.70;99.90;;;;;;4999203;28;20026;-83
2022/01/16 11:33:39;;;;;;;55.35;23.70;;;2.70;99.90;;;;;;5011537;28;20038;-86
2022/01/16 11:36:14;;;;;;;56.95;22.50;;;2.10;99.90;;;;;;4997133;28;20033;-81
2022/01/16 11:38:47;;;;;;;56.33;22.67;;;2.70;99.90;;;;;;4995241;28;20598;-86
2022/01/16 11:41:37;;;;;;;49.42;21.20;;;2.70;99.90;;;;;;5019566;28;20499;-80
2022/01/16 11:44:08;;;;;;;52.20;21.55;;;2.70;99.90;;;;;;5001449;28;20046;-83
2022/01/16 11:46:41;;;;;;;;;;;2.70;99.90;;;;;;4998774;28;20113;-84
2022/01/16 11:49:08;;;;;;;47.70;20.13;;;2.90;99.90;;;;;;5017585;28;20354;-86
2022/01/16 11:51:39;;;;;;;46.10;19.13;;;;;;;;;;5009116;28;20045;-82
2022/01/16 11:54:15;;;;;;;50.00;19.90;;;2.90;99.90;;;;;;5016495;28;20033;-83
2022/01/16 11:56:41;;;;;;;43.85;19.42;;;2.90;99.90;;;;;;4995357;28;20067;-82
2022/01/16 11:59:34;;;;;;;46.95;20.38;;;2.90;99.90;;;;;;5010560;28;20066;-85
2022/01/16 12:02:03;;;;;;;46.05;19.80;;;3.00;99.90;;;;;;4994146;28;20390;-86
2022/01/16 12:04:28;;;;;;;40.20;18.95;;;2.90;99.90;;;;;;5004627;28;20034;-84
2022/01/16 12:06:55;;;;;;;38.15;17.85;;;3.80;99.90;;;;;;5002315;28;20089;-83
2022/01/16 12:12:13;;;;;;;41.95;20.17;;;2.70;99.90;;;;;;5016720;28;20034;-81
2022/01/16 12:15:08;;;;;;;40.00;19.02;;;2.80;99.90;;;;;;5001463;28;20126;-84
2022/01/16 12:17:47;;;;;;;43.13;19.30;;;2.90;99.90;;;;;;4993626;28;20022;-85
2022/01/16 12:20:13;;;;;;;40.72;17.23;;;2.90;99.90;;;;;;5006709;28;20282;-85
2022/01/16 12:22:46;;;;;;;41.22;18.45;;;3.00;99.90;;;;;;5005847;28;20033;-82
2022/01/16 12:25:15;;;;;;;38.92;18.95;;;3.00;99.90;;;;;;5026160;28;20124;-84
2022/01/16 12:27:45;;;;;;;39.30;17.88;;;2.90;99.90;;;;;;5002893;28;20030;-84
2022/01/16 12:30:14;;;;;;;38.00;19.30;;;3.10;99.90;;;;;;5005042;28;20117;-82
2022/01/16 12:33:03;;;;;;;38.25;18.42;;;3.90;99.90;;;;;;5008393;28;20276;-84
2022/01/16 12:35:50;;;;;;;41.28;18.88;;;3.20;99.90;;;;;;4992551;28;20036;-86
2022/01/16 12:38:16;;;;;;;39.88;19.38;;;;;;;;;;5008737;28;20094;-83
2022/01/16 12:40:47;;;;;;;45.97;20.23;;;3.20;99.90;;;;;;5003614;28;20042;-84
2022/01/16 12:45:53;;;;;;;47.28;20.58;;;;;;;;;;5021148;28;20034;-82
2022/01/16 12:48:19;;;;;;;44.03;18.83;;;3.00;99.90;;;;;;5006080;28;20117;-86
2022/01/16 12:50:45;;;;;;;46.53;20.13;;;3.00;99.90;;;;;;5004965;28;20035;-84
2022/01/16 12:53:11;;;;;;;48.97;20.27;;;3.10;99.90;;;;;;5000603;28;20031;-85
2022/01/16 12:55:37;;;;;;;44.72;19.42;;;2.80;99.90;;;;;;5002838;28;20068;-85
2022/01/16 12:58:22;;;;;;;45.40;19.40;;;2.80;99.90;;;;;;5019452;28;20038;-84
2022/01/16 13:01:01;;;;;;;45.05;19.48;;;2.90;99.90;;;;;;5021365;28;21213;-82
2022/01/16 13:03:29;;;;;;;43.25;19.45;;;2.80;99.90;;;;;;5027376;28;20022;-85
2022/01/16 13:06:34;;;;;;;49.33;20.23;;;2.90;99.90;;;;;;5007067;28;20030;-86
2022/01/16 13:09:07;;;;;;;45.47;17.75;;;2.80;99.90;;;;;;4967422;28;20552;-87
2022/01/16 13:11:37;;;;;;;44.13;19.48;;;2.90;99.90;;;;;;4973152;28;20008;-84
2022/01/16 13:14:05;;;;;;;45.20;18.00;;;2.70;99.90;;;;;;5005676;28;20030;-85
2022/01/16 13:16:36;;;;;;;40.70;17.98;;;3.00;99.90;;;;;;5027557;28;20030;-83
2022/01/16 13:19:11;;;;;;;38.63;18.17;;;4.40;99.90;;;;;;5007532;28;20472;-83
2022/01/16 13:21:47;;;;;;;38.55;18.48;;;3.00;99.90;;;;;;5026629;28;20037;-87
2022/01/16 13:24:51;;;;;;;38.03;16.55;;;3.00;99.90;;;;;;5023405;28;20060;-80
2022/01/16 13:27:24;;;;;;;44.33;18.90;;;3.20;99.90;;;;;;4990048;28;20034;-83
2022/01/16 13:29:58;;;;;;;41.10;18.48;;;2.90;99.90;;;;;;5007736;28;20026;-85
2022/01/16 13:32:37;;;;;;;41.75;18.85;;;2.90;99.90;;;;;;5026672;28;20465;-85
2022/01/16 13:35:05;;;;;;;42.70;18.23;;;2.90;99.90;;;;;;5011583;28;20021;-83
2022/01/16 13:37:33;;;;;;;44.03;18.65;;;3.10;99.90;;;;;;5014575;28;20034;-84
2022/01/16 13:40:03;;;;;;;44.97;17.98;;;2.90;99.90;;;;;;5015397;28;20006;-81
2022/01/16 13:42:53;;;;;;;37.87;17.17;;;3.00;99.90;;;;;;5012965;28;20033;-83
2022/01/16 13:45:19;;;;;;;41.88;19.08;;;;;;;;;;5017285;28;20293;-85
2022/01/16 13:48:03;;;;;;;37.42;17.00;;;3.00;99.90;;;;;;5014687;28;20032;-83
2022/01/16 13:50:40;;;;;;;42.33;18.15;;;3.00;99.90;;;;;;5028240;28;20049;-84
2022/01/16 13:53:11;;;;;;;42.15;19.00;;;2.90;99.90;;;;;;5012355;28;20030;-85
2022/01/16 13:55:47;;;;;;;35.42;16.45;;;4.90;99.90;;;;;;5011970;28;20105;-82
2022/01/16 13:58:21;;;;;;;38.92;17.98;;;6.70;99.90;;;;;;5004218;28;20034;-84
2022/01/16 14:00:47;;;;;;;38.90;18.23;;;3.00;99.90;;;;;;4988766;28;20040;-84
2022/01/16 14:03:19;;;;;;;38.55;18.55;;;3.00;99.90;;;;;;5007072;28;20048;-82
2022/01/16 14:05:51;;;;;;;44.53;20.35;;;3.10;99.90;;;;;;4999859;28;20065;-84
2022/01/16 14:08:23;;;;;;;39.22;17.73;;;3.10;99.90;;;;;;4998789;28;20018;-84
2022/01/16 14:10:51;;;;;;;43.45;19.15;;;3.10;99.90;;;;;;5003652;28;20030;-83